Time;durP1;ratioP1;P1;durP2;ratioP2;P2;SDS_P1;SDS_P2;PMS_P1;PMS_P2;Temp;Humidity;BMP_temperature;BMP_pressure;BME280_temperature;BME280_humidity;BME280_pressure;Samples;Min_cycle;Max_cycle;Signal;HPM_P1;HPM_P2
2021/04/30 00:00:35;;;;;;;18.60;13.90;;;;;;;13.17;66.47;95743.94;1796707;78;21192;-81
2021/04/30 00:03:04;;;;;;;22.25;14.47;;;;;;;13.09;67.65;95741.11;1793494;78;21110;-81
2021/04/30 00:05:30;;;;;;;16.50;14.03;;;;;;;12.99;68.16;95742.08;1795438;78;21134;-81
2021/04/30 00:07:56;;;;;;;17.45;13.62;;;;;;;12.87;68.97;95743.79;1792350;78;21121;-81
2021/04/30 00:10:23;;;;;;;20.48;16.48;;;;;;;12.76;69.84;95740.55;1792681;78;21101;-79
2021/04/30 00:12:50;;;;;;;17.45;12.28;;;;;;;12.70;69.95;95733.08;1759185;80;21277;-80
2021/04/30 00:15:16;;;;;;;16.82;12.53;;;;;;;12.68;71.00;95737.67;1728487;81;21117;-80
2021/04/30 00:17:42;;;;;;;14.25;10.70;;;;;;;12.60;70.80;95743.95;1741960;80;21103;-79
2021/04/30 00:20:09;;;;;;;14.00;9.53;;;;;;;12.54;71.11;95746.09;1740090;80;21259;-80
2021/04/30 00:22:35;;;;;;;9.18;6.25;;;;;;;12.48;71.15;95746.11;1740358;80;21256;-80
2021/04/30 00:25:02;;;;;;;9.60;6.72;;;;;;;12.41;71.75;95744.86;1719460;81;21090;-80
2021/04/30 00:27:28;;;;;;;7.62;6.08;;;;;;;12.36;72.08;95743.86;1798296;78;21130;-81
2021/04/30 00:29:54;;;;;;;10.35;6.80;;;;;;;12.32;72.04;95727.86;1797637;78;21097;-81
2021/04/30 00:32:20;;;;;;;8.85;6.58;;;;;;;12.28;72.06;95721.47;1766643;78;21132;-81
2021/04/30 00:34:46;;;;;;;5.80;3.70;;;;;;;12.32;72.42;95711.72;1796484;78;22052;-80
2021/04/30 00:37:13;;;;;;;4.83;4.15;;;;;;;12.32;71.97;95724.75;1803854;78;21383;-82
2021/04/30 00:39:38;;;;;;;3.87;2.72;;;;;;;12.27;72.33;95710.77;1793016;78;21088;-81
2021/04/30 00:42:05;;;;;;;3.90;2.25;;;;;;;12.23;73.54;95705.67;1796289;78;21374;-81
2021/04/30 00:44:31;;;;;;;2.60;1.92;;;;;;;12.16;72.45;95700.98;1794106;78;21416;-81
2021/04/30 00:46:58;;;;;;;2.87;2.08;;;;;;;12.12;72.95;95695.40;1797213;78;21231;-81
2021/04/30 00:49:24;;;;;;;3.00;1.95;;;;;;;12.14;72.75;95691.28;1802477;78;21098;-81
2021/04/30 00:51:50;;;;;;;2.87;1.70;;;;;;;12.19;72.87;95671.92;1794635;78;21124;-81
2021/04/30 00:54:17;;;;;;;3.08;2.12;;;;;;;12.18;72.98;95650.79;1799978;78;21244;-81
2021/04/30 00:56:43;;;;;;;2.67;1.60;;;;;;;12.17;73.03;95647.89;1728080;80;21114;-80
2021/04/30 00:59:09;;;;;;;1.60;1.12;;;;;;;12.15;72.95;95659.83;1742200;80;21142;-79
2021/04/30 01:01:35;;;;;;;2.02;1.25;;;;;;;12.16;73.07;95670.53;1795020;78;21121;-80
2021/04/30 01:04:01;;;;;;;2.67;1.07;;;;;;;12.18;73.05;95670.33;1792138;78;21093;-80
2021/04/30 01:06:27;;;;;;;2.15;1.05;;;;;;;12.21;72.91;95668.12;1793353;78;21103;-80
2021/04/30 01:08:53;;;;;;;2.30;0.62;;;;;;;12.19;72.78;95671.92;1800341;78;21067;-80
2021/04/30 01:11:19;;;;;;;1.30;0.82;;;;;;;12.13;72.74;95674.06;1803228;78;21078;-80
2021/04/30 01:13:45;;;;;;;1.55;0.90;;;;;;;12.08;72.66;95695.53;1795310;78;21106;-80
2021/04/30 01:16:11;;;;;;;1.27;0.75;;;;;;;12.04;72.92;95694.35;1792248;78;21206;-79
2021/04/30 01:18:46;;;;;;;0.90;0.68;;;;;;;11.99;72.98;95704.56;1796240;78;21120;-80
2021/04/30 01:21:12;;;;;;;0.60;0.60;;;;;;;11.94;73.20;95705.20;1795071;78;21399;-80
2021/04/30 01:23:51;;;;;;;1.62;0.70;;;;;;;11.87;73.29;95709.61;1797531;78;21336;-80
2021/04/30 01:26:18;;;;;;;1.65;0.95;;;;;;;11.77;73.55;95702.73;1795207;78;21078;-80
2021/04/30 01:28:44;;;;;;;1.85;0.57;;;;;;;11.70;73.36;95712.34;1795029;78;21166;-80
2021/04/30 01:31:11;;;;;;;0.93;0.80;;;;;;;11.69;74.10;95704.23;1800294;78;21465;-80
2021/04/30 01:33:37;;;;;;;0.80;0.60;;;;;;;11.69;74.19;95702.43;1792530;78;21265;-79
2021/04/30 01:36:04;;;;;;;0.65;0.62;;;;;;;11.70;74.35;95701.42;1799494;78;21275;-79
2021/04/30 01:38:30;;;;;;;1.75;0.70;;;;;;;11.71;74.32;95698.32;1802842;78;21231;-80
2021/04/30 01:40:56;;;;;;;1.80;0.75;;;;;;;11.72;74.84;95695.55;1801671;78;21545;-80
2021/04/30 01:43:24;;;;;;;1.22;0.98;;;;;;;11.71;74.46;95693.95;1767187;80;21327;-79
2021/04/30 01:45:56;;;;;;;2.50;0.70;;;;;;;11.67;74.55;95695.34;1735498;80;21158;-80
2021/04/30 01:48:27;;;;;;;1.50;0.90;;;;;;;11.68;74.88;95701.34;1732874;82;21126;-80
2021/04/30 01:50:54;;;;;;;2.00;0.80;;;;;;;11.69;74.86;95693.33;1731581;82;21482;-80
2021/04/30 01:53:25;;;;;;;1.00;0.82;;;;;;;11.73;74.78;95698.94;1727284;80;21172;-80
2021/04/30 01:55:52;;;;;;;1.80;1.27;;;;;;;11.77;74.74;95707.93;1733038;82;21361;-80
2021/04/30 01:58:20;;;;;;;1.70;1.27;;;;;;;11.81;74.87;95710.95;1742759;81;21102;-80
2021/04/30 02:00:46;;;;;;;1.20;1.10;;;;;;;11.78;75.12;95711.33;1763120;80;21066;-80
2021/04/30 02:03:12;;;;;;;1.87;1.20;;;;;;;11.79;75.23;95709.85;1759429;80;21117;-80
2021/04/30 02:05:39;;;;;;;2.17;1.05;;;;;;;11.78;75.40;95708.23;1764639;80;21145;-80
2021/04/30 02:08:10;;;;;;;1.52;1.00;;;;;;;11.80;75.24;95710.66;1762676;80;21115;-80
2021/04/30 02:10:37;;;;;;;1.80;1.37;;;;;;;11.81;75.26;95708.34;1759831;80;21423;-80
2021/04/30 02:13:03;;;;;;;1.50;1.10;;;;;;;11.83;75.50;95705.83;1764855;80;21132;-80
2021/04/30 02:15:34;;;;;;;3.52;1.35;;;;;;;11.84;75.56;95706.62;1762928;80;21159;-80
2021/04/30 02:18:00;;;;;;;1.90;1.40;;;;;;;11.83;75.43;95700.63;1761163;80;21113;-79
2021/04/30 02:20:26;;;;;;;2.40;1.20;;;;;;;11.84;75.64;95704.02;1760087;80;21376;-80
2021/04/30 02:22:52;;;;;;;3.12;1.02;;;;;;;11.82;75.63;95704.73;1761786;80;21553;-80
2021/04/30 02:25:20;;;;;;;2.60;1.12;;;;;;;11.82;75.86;95706.84;1767433;80;21124;-80
2021/04/30 02:27:47;;;;;;;2.75;1.50;;;;;;;11.81;75.73;95710.95;1763960;80;21248;-80
2021/04/30 02:30:15;;;;;;;3.50;1.22;;;;;;;11.77;75.77;95713.14;1764914;80;21083;-80
2021/04/30 02:32:43;;;;;;;2.27;1.65;;;;;;;11.74;75.71;95714.85;1761618;80;21223;-80
2021/04/30 02:35:14;;;;;;;1.40;1.10;;;;;;;11.70;76.07;95716.23;1760393;80;21089;-80
2021/04/30 02:37:41;;;;;;;2.60;1.55;;;;;;;11.70;76.15;95720.14;1761003;80;22307;-81
2021/04/30 02:40:08;;;;;;;2.27;1.60;;;;;;;11.70;76.20;95721.45;1749526;79;21639;-81
2021/04/30 02:42:36;;;;;;;2.27;1.35;;;;;;;11.68;76.22;95720.35;1767920;78;21419;-81
2021/04/30 02:45:04;;;;;;;3.83;1.82;;;;;;;11.71;76.31;95721.74;1798717;78;21228;-81
2021/04/30 02:47:31;;;;;;;2.58;1.77;;;;;;;11.72;76.50;95723.37;1795430;78;21539;-81
2021/04/30 02:49:58;;;;;;;2.62;1.80;;;;;;;11.71;76.37;95720.44;1797050;78;21394;-81
2021/04/30 02:52:25;;;;;;;4.67;2.27;;;;;;;11.69;76.60;95723.25;1802562;78;21277;-80
2021/04/30 02:54:51;;;;;;;2.92;1.65;;;;;;;11.68;76.62;95720.86;1799883;78;21112;-80
2021/04/30 02:57:17;;;;;;;3.70;1.95;;;;;;;11.69;76.58;95718.05;1797272;78;21133;-80
2021/04/30 02:59:43;;;;;;;3.58;1.90;;;;;;;11.72;76.78;95722.07;1795868;78;21097;-80
2021/04/30 03:02:09;;;;;;;4.35;2.00;;;;;;;11.73;76.65;95719.77;1798273;78;21121;-80
2021/04/30 03:04:35;;;;;;;4.05;2.10;;;;;;;11.74;76.64;95721.36;1795915;78;21102;-80
2021/04/30 03:07:01;;;;;;;4.45;3.10;;;;;;;11.74;76.69;95722.66;1799032;78;21293;-80
2021/04/30 03:09:27;;;;;;;5.35;2.75;;;;;;;11.74;76.71;95729.16;1795412;78;21121;-80
2021/04/30 03:11:53;;;;;;;4.37;2.92;;;;;;;11.72;76.94;95732.48;1804595;78;21140;-80
2021/04/30 03:14:19;;;;;;;4.42;3.42;;;;;;;11.70;77.09;95739.16;1799029;78;21090;-80
2021/04/30 03:16:45;;;;;;;5.37;3.27;;;;;;;11.69;76.91;95729.75;1793069;78;21215;-80
2021/04/30 03:19:11;;;;;;;4.37;3.45;;;;;;;11.73;76.78;95740.08;1797260;78;21114;-80
2021/04/30 03:21:37;;;;;;;6.25;3.90;;;;;;;11.78;76.74;95747.77;1768629;80;21098;-79
2021/04/30 03:24:05;;;;;;;6.20;3.90;;;;;;;11.82;77.00;95754.19;1740391;81;21136;-79
2021/04/30 03:26:31;;;;;;;6.67;4.42;;;;;;;11.84;76.93;95760.78;1776371;78;21125;-80
2021/04/30 03:28:58;;;;;;;5.78;4.53;;;;;;;11.83;77.00;95764.89;1797747;78;21486;-81
2021/04/30 03:31:24;;;;;;;7.85;5.40;;;;;;;11.81;77.30;95765.11;1797532;78;21164;-81
2021/04/30 03:33:50;;;;;;;6.47;4.70;;;;;;;11.78;77.11;95771.99;1763695;80;21116;-80
2021/04/30 03:36:16;;;;;;;5.70;4.62;;;;;;;11.81;77.19;95771.61;1766573;79;21120;-80
2021/04/30 03:38:42;;;;;;;7.05;4.80;;;;;;;11.81;77.19;95771.61;1767153;79;21744;-80
2021/04/30 03:41:08;;;;;;;6.40;4.92;;;;;;;11.81;77.12;95771.61;1764026;80;22023;-80
2021/04/30 03:43:34;;;;;;;7.15;4.75;;;;;;;11.80;77.06;95778.33;1799918;78;21110;-80
2021/04/30 03:46:00;;;;;;;5.90;5.03;;;;;;;11.79;77.17;95781.94;1801275;78;21573;-80
2021/04/30 03:48:27;;;;;;;7.47;5.30;;;;;;;11.75;77.13;95777.61;1796643;78;21116;-80
2021/04/30 03:50:53;;;;;;;7.67;5.40;;;;;;;11.75;77.15;95782.81;1793199;78;21118;-80
2021/04/30 03:53:21;;;;;;;7.83;5.40;;;;;;;11.79;77.18;95785.34;1801914;78;21100;-80
2021/04/30 03:55:48;;;;;;;6.58;4.92;;;;;;;11.83;77.22;95788.33;1801094;78;21137;-80
2021/04/30 03:58:14;;;;;;;6.83;5.62;;;;;;;11.87;77.00;95794.22;1796470;78;21109;-80
2021/04/30 04:00:40;;;;;;;6.37;4.95;;;;;;;11.90;76.99;95793.03;1793854;78;21231;-80
2021/04/30 04:03:06;;;;;;;7.28;5.42;;;;;;;11.93;77.11;95801.73;1800125;78;21673;-80
2021/04/30 04:05:32;;;;;;;7.12;5.70;;;;;;;11.92;77.04;95798.83;1794859;78;21129;-80
2021/04/30 04:07:58;;;;;;;5.37;4.67;;;;;;;11.91;77.00;95807.14;1799688;78;21110;-80
2021/04/30 04:10:24;;;;;;;5.45;4.50;;;;;;;11.93;76.99;95818.15;1765729;80;21280;-80
2021/04/30 04:12:50;;;;;;;7.80;5.08;;;;;;;11.94;77.22;95819.75;1802539;78;21122;-79
2021/04/30 04:15:16;;;;;;;9.35;6.55;;;;;;;11.95;76.99;95822.65;1801187;78;21113;-79
2021/04/30 04:17:43;;;;;;;8.70;6.45;;;;;;;11.96;77.11;95828.16;1800744;78;21118;-79
2021/04/30 04:20:11;;;;;;;10.20;8.08;;;;;;;11.93;77.10;95835.07;1804776;78;21109;-80
2021/04/30 04:22:37;;;;;;;10.25;8.50;;;;;;;11.88;76.94;95836.69;1803742;78;21125;-79
2021/04/30 04:25:05;;;;;;;11.50;9.58;;;;;;;11.85;77.01;95833.97;1807120;78;21135;-79
2021/04/30 04:27:31;;;;;;;11.57;9.48;;;;;;;11.85;77.12;95836.57;1799193;78;21636;-79
2021/04/30 04:29:57;;;;;;;11.20;10.08;;;;;;;11.83;76.94;95839.87;1798324;78;21243;-79
2021/04/30 04:32:23;;;;;;;12.45;11.22;;;;;;;11.82;76.98;95847.89;1796274;78;21404;-79
2021/04/30 04:34:49;;;;;;;12.90;11.53;;;;;;;11.81;77.11;95847.09;1803073;78;21057;-79
2021/04/30 04:37:15;;;;;;;12.65;11.35;;;;;;;11.80;77.05;95851.20;1806475;78;21846;-78
2021/04/30 04:39:41;;;;;;;11.80;10.40;;;;;;;11.80;77.23;95855.91;1798530;78;21094;-81
2021/04/30 04:42:08;;;;;;;11.45;10.28;;;;;;;11.79;77.28;95857.41;1793435;78;21086;-80
2021/04/30 04:44:34;;;;;;;14.33;11.88;;;;;;;11.87;77.42;95861.09;1797325;78;21136;-80
2021/04/30 04:47:00;;;;;;;11.60;9.88;;;;;;;11.90;77.33;95867.22;1794153;78;21462;-80
2021/04/30 04:49:26;;;;;;;9.13;8.13;;;;;;;11.86;77.26;95868.61;1802897;78;21937;-80
2021/04/30 04:51:52;;;;;;;8.80;7.65;;;;;;;11.84;77.17;95871.41;1768617;78;21203;-80
2021/04/30 04:54:18;;;;;;;10.20;8.10;;;;;;;11.81;77.25;95875.73;1801614;78;21369;-80
2021/04/30 04:56:44;;;;;;;10.43;7.95;;;;;;;11.79;77.37;95884.24;1767008;78;21168;-80
2021/04/30 04:59:11;;;;;;;9.13;8.13;;;;;;;11.79;77.35;95880.34;1795704;78;21097;-80
2021/04/30 05:01:38;;;;;;;9.13;7.58;;;;;;;11.80;77.16;95883.74;1758937;80;21518;-80
2021/04/30 05:04:04;;;;;;;8.48;7.22;;;;;;;11.78;77.28;95885.72;1760687;80;21121;-80
2021/04/30 05:06:30;;;;;;;9.85;7.55;;;;;;;11.76;77.26;95887.22;1729056;80;21128;-80
2021/04/30 05:08:57;;;;;;;11.33;9.65;;;;;;;11.73;77.25;95883.22;1772528;80;21320;-80
2021/04/30 05:11:23;;;;;;;9.78;8.88;;;;;;;11.74;77.32;95886.63;1772275;79;21243;-79
2021/04/30 05:13:49;;;;;;;9.50;8.53;;;;;;;11.77;77.23;95886.72;1742196;81;21395;-79
2021/04/30 05:16:15;;;;;;;8.35;7.20;;;;;;;11.76;77.34;95887.72;1749956;81;21236;-79
2021/04/30 05:18:42;;;;;;;9.13;6.97;;;;;;;11.79;77.31;95889.95;1758706;81;21071;-79
2021/04/30 05:21:09;;;;;;;10.58;7.03;;;;;;;11.81;77.00;95894.45;1747149;81;21489;-78
2021/04/30 05:23:38;;;;;;;9.13;7.28;;;;;;;11.81;76.82;95891.34;1739229;81;21118;-78
2021/04/30 05:26:04;;;;;;;9.93;7.40;;;;;;;11.80;76.63;95897.55;1742541;81;21118;-80
2021/04/30 05:28:31;;;;;;;10.68;7.80;;;;;;;11.78;76.57;95900.03;1802798;78;21118;-79
2021/04/30 05:30:57;;;;;;;9.98;7.92;;;;;;;11.80;76.65;95894.95;1804552;79;21130;-79
2021/04/30 05:33:24;;;;;;;13.13;9.33;;;;;;;11.81;76.77;95885.34;1810760;78;21122;-79
2021/04/30 05:35:50;;;;;;;14.47;11.05;;;;;;;11.83;76.39;95875.52;1799894;78;21105;-79
2021/04/30 05:38:17;;;;;;;12.37;11.03;;;;;;;11.88;76.49;95880.45;1794018;78;21132;-80
2021/04/30 05:40:43;;;;;;;12.82;11.33;;;;;;;11.93;76.46;95892.34;1767063;78;21444;-80
2021/04/30 05:43:11;;;;;;;13.20;11.80;;;;;;;12.01;76.76;95904.34;1803341;78;21108;-79
2021/04/30 05:45:40;;;;;;;14.43;12.55;;;;;;;12.07;76.85;95909.27;1807913;78;21107;-79
2021/04/30 05:48:08;;;;;;;15.95;11.80;;;;;;;12.13;77.00;95920.16;1753258;80;21122;-79
2021/04/30 05:50:34;;;;;;;16.30;11.93;;;;;;;12.23;77.05;95922.67;1778511;80;21129;-78
2021/04/30 05:53:00;;;;;;;12.33;11.03;;;;;;;12.37;76.99;95929.16;1782131;80;21063;-78
2021/04/30 05:55:26;;;;;;;11.97;9.78;;;;;;;12.46;76.63;95926.62;1765152;80;21201;-78
2021/04/30 05:57:52;;;;;;;13.40;10.78;;;;;;;12.55;76.48;95928.02;1772681;80;21313;-78
2021/04/30 06:00:19;;;;;;;13.53;11.43;;;;;;;12.62;76.79;95928.28;1741979;81;21119;-77
2021/04/30 06:02:45;;;;;;;13.80;12.30;;;;;;;12.73;76.49;95933.88;1730001;82;21078;-78
2021/04/30 06:05:12;;;;;;;14.15;12.37;;;;;;;12.78;76.54;95933.54;1754526;80;21225;-79
2021/04/30 06:07:38;;;;;;;15.32;13.85;;;;;;;12.89;76.14;95938.63;1761429;81;21125;-79
2021/04/30 06:10:05;;;;;;;16.45;14.85;;;;;;;13.00;76.03;95943.68;1772035;80;21118;-78
2021/04/30 06:12:31;;;;;;;14.38;12.70;;;;;;;13.09;76.39;95946.36;1775278;80;21134;-80
2021/04/30 06:14:57;;;;;;;14.60;12.53;;;;;;;13.15;75.97;95942.91;1761070;81;21109;-78
2021/04/30 06:17:24;;;;;;;13.58;11.83;;;;;;;13.18;75.45;95946.47;1756571;81;21140;-78
2021/04/30 06:19:50;;;;;;;11.95;9.95;;;;;;;13.06;75.13;95929.33;1757856;81;21106;-78
2021/04/30 06:22:19;;;;;;;11.22;10.03;;;;;;;13.22;74.68;95950.25;1755874;81;21420;-79
2021/04/30 06:24:45;;;;;;;12.68;10.75;;;;;;;13.27;74.55;95947.81;1763355;81;21114;-79
2021/04/30 06:27:11;;;;;;;11.65;9.50;;;;;;;13.28;74.06;95948.09;1757396;81;21128;-77
2021/04/30 06:29:37;;;;;;;10.50;8.70;;;;;;;13.23;73.63;95949.74;1756348;81;21336;-80
2021/04/30 06:32:07;;;;;;;11.48;7.55;;;;;;;13.23;73.76;95955.77;1759644;81;21201;-80
2021/04/30 06:34:33;;;;;;;10.90;7.35;;;;;;;13.23;73.52;95956.27;1753165;81;21228;-79
2021/04/30 06:36:59;;;;;;;8.85;6.90;;;;;;;13.18;73.38;95959.51;1754089;81;21623;-80
2021/04/30 06:39:25;;;;;;;10.05;7.47;;;;;;;13.12;72.83;95961.09;1750471;80;21129;-79
2021/04/30 06:41:52;;;;;;;14.75;8.23;;;;;;;13.07;72.54;95958.81;1761553;81;21112;-79
2021/04/30 06:44:18;;;;;;;9.15;7.62;;;;;;;13.04;72.69;95963.95;1738963;81;21433;-79
2021/04/30 06:46:44;;;;;;;11.30;8.53;;;;;;;12.99;72.19;95970.27;1736115;81;21229;-79
2021/04/30 06:49:10;;;;;;;10.48;9.43;;;;;;;12.98;72.69;95960.84;1791236;78;21122;-78
2021/04/30 06:51:36;;;;;;;15.05;12.20;;;;;;;13.08;72.96;95963.82;1793372;79;21248;-80
2021/04/30 06:54:03;;;;;;;12.45;9.18;;;;;;;13.21;72.88;95969.02;1791947;78;21126;-80
2021/04/30 06:56:29;;;;;;;11.55;8.93;;;;;;;13.36;72.18;95965.34;1804543;78;21651;-80
2021/04/30 06:58:57;;;;;;;11.03;8.90;;;;;;;13.49;71.15;95966.04;1791043;78;21186;-79
2021/04/30 07:01:26;;;;;;;11.38;9.35;;;;;;;13.48;70.71;95964.44;1777760;79;21398;-79
2021/04/30 07:03:52;;;;;;;9.50;8.50;;;;;;;13.50;70.24;95959.01;1806418;79;21297;-79
2021/04/30 07:06:19;;;;;;;12.05;10.63;;;;;;;13.54;70.61;95956.80;1795174;78;21093;-78
2021/04/30 07:08:45;;;;;;;10.03;9.00;;;;;;;13.56;70.49;95951.66;1814990;78;21229;-79
2021/04/30 07:11:11;;;;;;;11.93;10.75;;;;;;;13.67;70.15;95951.00;1801286;78;21221;-79
2021/04/30 07:13:37;;;;;;;12.53;11.28;;;;;;;13.76;70.40;95954.14;1800763;78;21105;-79
2021/04/30 07:16:04;;;;;;;12.50;9.25;;;;;;;13.81;70.19;95945.95;1774281;80;21209;-81
2021/04/30 07:18:31;;;;;;;12.07;10.88;;;;;;;13.81;69.08;95943.34;1791569;78;21223;-81
2021/04/30 07:20:57;;;;;;;11.68;10.48;;;;;;;13.76;69.53;95945.80;1779999;79;21086;-81
2021/04/30 07:23:23;;;;;;;15.53;14.23;;;;;;;13.73;69.56;95949.34;1789567;78;21105;-80
2021/04/30 07:25:50;;;;;;;15.15;13.70;;;;;;;13.69;69.32;95945.56;1772530;79;21208;-79
2021/04/30 07:28:16;;;;;;;33.78;31.02;;;;;;;13.60;69.21;95941.09;1727069;81;21141;-79
2021/04/30 07:30:42;;;;;;;14.15;12.70;;;;;;;13.56;69.54;95951.66;1738337;81;21118;-79
2021/04/30 07:33:08;;;;;;;12.10;10.80;;;;;;;13.48;69.03;95952.70;1776091;80;21094;-78
2021/04/30 07:35:37;;;;;;;14.47;11.43;;;;;;;13.46;69.28;95953.92;1767203;80;21126;-78
2021/04/30 07:38:05;;;;;;;16.52;13.15;;;;;;;13.43;68.84;95954.34;1732301;80;21122;-78
2021/04/30 07:40:31;;;;;;;14.85;12.73;;;;;;;13.45;69.38;95957.03;1807770;78;21244;-78
2021/04/30 07:42:58;;;;;;;14.40;12.65;;;;;;;13.50;69.24;95955.92;1792707;78;21234;-79
2021/04/30 07:45:24;;;;;;;14.07;11.80;;;;;;;13.53;69.37;95953.39;1799229;78;21224;-78
2021/04/30 07:47:50;;;;;;;10.00;8.98;;;;;;;13.57;68.89;95953.77;1792558;78;21237;-77
2021/04/30 07:50:16;;;;;;;10.72;9.53;;;;;;;13.55;68.11;95948.76;1797831;78;21247;-80
2021/04/30 07:52:42;;;;;;;15.03;13.28;;;;;;;13.50;67.60;95953.31;1798005;78;22214;-77
2021/04/30 07:55:10;;;;;;;10.82;9.73;;;;;;;13.52;68.15;95954.41;1800141;78;21094;-78
2021/04/30 07:57:38;;;;;;;11.83;10.63;;;;;;;13.64;68.56;95965.75;1789916;78;21517;-79
2021/04/30 08:00:05;;;;;;;17.23;14.30;;;;;;;13.75;68.13;95965.59;1802095;78;21098;-80
2021/04/30 08:02:31;;;;;;;14.70;11.55;;;;;;;13.93;67.99;95967.47;1806414;78;21141;-79
2021/04/30 08:04:57;;;;;;;10.00;9.00;;;;;;;14.18;68.13;95963.06;1806253;78;21328;-78
2021/04/30 08:07:23;;;;;;;13.00;10.32;;;;;;;14.31;67.67;95968.16;1805764;78;21117;-79
2021/04/30 08:09:53;;;;;;;10.98;8.13;;;;;;;14.42;66.62;95959.62;1798146;78;21094;-78
2021/04/30 08:12:17;;;;;;;8.40;6.97;;;;;;;14.51;67.57;95961.48;1803148;78;21232;-79
2021/04/30 08:14:44;;;;;;;8.15;6.53;;;;;;;14.57;66.20;95959.81;1784766;78;21106;-80
2021/04/30 08:17:11;;;;;;;7.30;6.00;;;;;;;14.64;66.52;95954.83;1805480;78;21074;-79
2021/04/30 08:19:37;;;;;;;10.72;9.13;;;;;;;14.78;66.75;95949.43;1809649;78;21348;-79
2021/04/30 08:22:03;;;;;;;9.58;7.12;;;;;;;14.96;65.48;95952.03;1793645;78;21106;-79
2021/04/30 08:24:31;;;;;;;7.28;5.30;;;;;;;15.05;64.27;95955.16;1789166;78;21218;-78
2021/04/30 08:26:58;;;;;;;6.30;5.65;;;;;;;15.11;64.93;95969.47;1797464;78;21137;-81
2021/04/30 08:29:24;;;;;;;6.15;5.55;;;;;;;15.22;64.84;95967.94;1797070;78;21090;-78
2021/04/30 08:31:51;;;;;;;5.35;4.85;;;;;;;15.28;64.23;95969.15;1791487;78;21309;-78
2021/04/30 08:34:17;;;;;;;7.78;6.90;;;;;;;15.21;63.71;95960.59;1789141;78;21874;-79
2021/04/30 08:36:43;;;;;;;11.20;7.50;;;;;;;15.19;64.19;95965.77;1790739;78;21093;-78
2021/04/30 08:39:10;;;;;;;7.30;5.15;;;;;;;15.18;63.47;95974.13;1801336;78;21141;-79
2021/04/30 08:41:37;;;;;;;9.50;8.00;;;;;;;15.14;63.44;95969.56;1797948;78;21153;-78
2021/04/30 08:44:04;;;;;;;22.07;16.00;;;;;;;15.12;63.24;95974.19;1784950;79;21086;-80
2021/04/30 08:46:31;;;;;;;7.75;6.17;;;;;;;15.11;62.91;95973.91;1792749;78;21427;-79
2021/04/30 08:49:07;;;;;;;8.33;7.53;;;;;;;15.18;61.29;95979.36;1804831;78;21130;-81
2021/04/30 08:51:33;;;;;;;8.35;7.65;;;;;;;15.31;62.47;95973.97;1801184;78;21459;-80
2021/04/30 08:54:01;;;;;;;8.00;7.05;;;;;;;15.52;62.89;95975.81;1783162;78;21129;-79
2021/04/30 08:56:27;;;;;;;6.55;5.95;;;;;;;15.79;62.50;95974.45;1793344;78;21120;-81
2021/04/30 08:58:54;;;;;;;7.55;6.83;;;;;;;16.01;61.50;95970.79;1798993;78;21320;-79
2021/04/30 09:01:20;;;;;;;12.20;9.20;;;;;;;16.15;61.43;95975.31;1789728;78;21327;-80
2021/04/30 09:03:47;;;;;;;11.33;10.23;;;;;;;16.31;61.80;95977.27;1795569;78;21098;-78
2021/04/30 09:06:18;;;;;;;6.92;6.17;;;;;;;16.38;60.94;95974.52;1791116;78;21252;-78
2021/04/30 09:08:48;;;;;;;8.00;6.05;;;;;;;16.43;59.99;95971.52;1793333;78;21224;-79
2021/04/30 09:11:47;;;;;;;5.17;4.08;;;;;;;16.45;59.14;95976.54;1800374;78;21058;-80
2021/04/30 09:14:32;;;;;;;4.55;3.83;;;;;;;16.53;58.43;95976.18;1795137;78;21225;-78
2021/04/30 09:17:14;;;;;;;4.47;3.65;;;;;;;16.70;57.37;95973.17;1757813;79;22612;-78
2021/04/30 09:19:51;;;;;;;3.08;2.45;;;;;;;16.79;54.48;95967.88;1739374;82;21418;-80
2021/04/30 09:22:26;;;;;;;3.40;2.77;;;;;;;16.86;52.96;95978.75;1745566;80;21142;-78
2021/04/30 09:24:57;;;;;;;3.12;2.52;;;;;;;16.87;51.42;95977.72;1741183;80;21515;-77
2021/04/30 09:27:41;;;;;;;3.97;3.43;;;;;;;16.87;50.96;95975.89;1751754;80;21118;-77
2021/04/30 09:30:17;;;;;;;3.30;2.52;;;;;;;16.90;52.03;95972.80;1737682;82;21102;-80
2021/04/30 09:33:10;;;;;;;3.58;2.62;;;;;;;16.87;51.86;95977.72;1744868;80;21106;-79
2021/04/30 09:35:49;;;;;;;4.35;2.90;;;;;;;16.79;50.84;95977.06;1737125;80;21078;-80
2021/04/30 09:38:28;;;;;;;3.65;2.30;;;;;;;16.88;50.69;95989.30;1736344;80;21321;-80
2021/04/30 09:41:09;;;;;;;2.90;2.37;;;;;;;16.90;49.84;95978.05;1737212;80;21086;-81
2021/04/30 09:43:50;;;;;;;6.20;2.60;;;;;;;16.97;50.76;95991.06;1737781;80;21268;-80
2021/04/30 09:46:32;;;;;;;2.85;2.40;;;;;;;16.98;48.71;95993.97;1744156;80;21371;-80
2021/04/30 09:49:14;;;;;;;3.58;2.67;;;;;;;16.96;48.12;95987.64;1742322;80;21111;-80
2021/04/30 09:51:51;;;;;;;3.25;2.35;;;;;;;16.97;48.12;95987.13;1733034;80;21101;-80
2021/04/30 09:54:27;;;;;;;3.05;2.70;;;;;;;16.99;48.67;95994.25;1714890;80;21224;-81
2021/04/30 09:57:15;;;;;;;5.55;2.92;;;;;;;17.04;45.57;95995.14;1739106;82;21345;-83
2021/04/30 09:59:59;;;;;;;4.45;3.02;;;;;;;16.98;47.96;95996.08;1749445;80;21250;-80
2021/04/30 10:02:29;;;;;;;3.17;2.60;;;;;;;16.95;49.02;95989.19;1750177;80;21221;-82
2021/04/30 10:05:14;;;;;;;2.80;2.30;;;;;;;16.98;48.26;95993.97;1741717;80;21130;-80
2021/04/30 10:07:42;;;;;;;4.95;3.17;;;;;;;17.00;49.26;95991.39;1736110;80;21130;-81
2021/04/30 10:10:25;;;;;;;3.60;2.15;;;;;;;17.13;48.28;95990.34;1740163;80;21133;-81
2021/04/30 10:12:55;;;;;;;4.10;3.05;;;;;;;17.14;47.69;95981.44;1748226;80;21109;-80
2021/04/30 10:15:22;;;;;;;4.65;3.67;;;;;;;17.21;47.64;95988.66;1748751;80;21292;-80
2021/04/30 10:17:55;;;;;;;5.20;3.47;;;;;;;17.22;47.21;95984.20;1738701;79;21129;-80
2021/04/30 10:20:24;;;;;;;4.10;3.70;;;;;;;17.19;46.62;95985.47;1740507;80;21300;-79
2021/04/30 10:22:51;;;;;;;5.53;4.47;;;;;;;17.18;46.75;95987.81;1746959;80;21067;-79
2021/04/30 10:25:19;;;;;;;4.72;3.42;;;;;;;17.15;47.56;95977.78;1743401;80;21157;-80
2021/04/30 10:27:51;;;;;;;4.45;3.27;;;;;;;17.16;47.34;95982.00;1739854;80;21222;-81
2021/04/30 10:30:35;;;;;;;7.08;5.00;;;;;;;17.06;47.59;95976.02;1751120;80;21106;-81
2021/04/30 10:33:26;;;;;;;6.70;5.80;;;;;;;17.12;48.02;95977.45;1708071;80;21097;-82
2021/04/30 10:36:31;;;;;;;4.72;4.28;;;;;;;17.19;46.05;95990.72;1743586;79;21341;-80
2021/04/30 10:39:00;;;;;;;4.08;3.67;;;;;;;17.23;47.45;95979.23;1745323;80;21142;-81
2021/04/30 10:41:39;;;;;;;4.22;3.52;;;;;;;17.20;46.99;95958.18;1753316;80;21233;-81
2021/04/30 10:44:25;;;;;;;;;;;;;;;;;;;;;
2021/04/30 10:47:17;;;;;;;4.15;3.45;;;;;;;17.50;46.70;95983.44;1825408;77;22939;-79
2021/04/30 10:49:42;;;;;;;5.65;3.77;;;;;;;17.50;46.58;95990.00;1807047;77;21122;-78
2021/04/30 10:55:04;;;;;;;5.12;3.65;;;;;;;17.52;47.14;95979.53;1766846;79;22988;-79
2021/04/30 10:57:59;;;;;;;3.90;3.17;;;;;;;17.55;46.67;95983.52;1736135;80;21300;-79
2021/04/30 11:00:30;;;;;;;4.40;3.50;;;;;;;17.57;45.66;95974.88;1733143;80;22116;-79
2021/04/30 11:03:17;;;;;;;4.20;3.30;;;;;;;17.59;46.37;95980.20;1725487;80;21117;-79
2021/04/30 11:05:54;;;;;;;3.15;2.17;;;;;;;17.62;46.62;95982.36;1734463;80;21130;-79
2021/04/30 11:08:52;;;;;;;3.67;2.90;;;;;;;17.62;43.19;95974.48;1746821;80;21098;-77
2021/04/30 11:11:36;;;;;;;3.47;2.62;;;;;;;17.60;43.77;95973.12;1733535;80;21305;-79
2021/04/30 11:14:27;;;;;;;5.58;4.05;;;;;;;17.62;44.43;95973.68;1726988;80;21119;-79
2021/04/30 11:16:55;;;;;;;7.78;5.00;;;;;;;17.70;44.42;95970.17;1725823;80;21353;-79
2021/04/30 11:19:25;;;;;;;4.45;3.37;;;;;;;17.74;44.11;95976.30;1731567;80;21142;-79
2021/04/30 11:21:56;;;;;;;4.92;2.72;;;;;;;17.79;42.09;95969.80;1737813;80;21221;-79
2021/04/30 11:24:35;;;;;;;4.58;3.67;;;;;;;17.62;42.17;95980.25;1726618;80;21074;-79
2021/04/30 11:27:25;;;;;;;3.58;2.80;;;;;;;17.63;41.70;95977.91;1733048;80;21293;-79
2021/04/30 11:29:52;;;;;;;6.92;4.33;;;;;;;17.57;42.59;95980.96;1728640;80;21118;-79
2021/04/30 11:32:24;;;;;;;3.50;3.15;;;;;;;17.57;43.20;95967.83;1726463;80;21315;-79
2021/04/30 11:34:53;;;;;;;8.73;4.55;;;;;;;17.60;42.92;95973.92;1730320;80;21090;-80
2021/04/30 11:37:21;;;;;;;7.67;5.03;;;;;;;17.69;44.50;95977.77;1730358;80;21399;-79
2021/04/30 11:39:48;;;;;;;6.62;4.92;;;;;;;17.79;43.33;95973.74;1737083;80;21301;-79